Latest Weather Observations for Roseworthy

IDS60801

Issued at 1:32 pm CST Thursday 30 July 2015 (issued every 30 minutes, with the page automatically refreshed every 10 minutes)

About weather observations | Map of weather stations | Latest weather observations for SA | Other Formats
Station Details ID: 023122 Name: ROSEWORTHY AWS Lat: -34.51 Lon: 138.68 Height: 65.0 m
Data from the previous 72 hours. | See also: Recent months at Roseworthy
Date/Time
CST
Temp
°C
App
Temp
°C
Dew
Point
Rel
Hum
%
Delta-T
°C
Wind Press
QNH
hPa
Press
MSL
hPa
Rain
since 9 am
mm
Dir
 
Spd
km/h
Gust
km/h
Spd
kts
Gust
kts
30/01:30pm 14.8 5.9 3.3 46 5.2 NW 39 50 21 27 1017.8 - 0.0
30/01:04pm 14.6 5.4 3.4 47 5.1 NW 41 59 22 32 1017.9 - 0.0
30/01:00pm 14.8 4.9 3.0 45 5.3 NW 44 59 24 32 1017.8 - 0.0
30/12:30pm 15.5 6.5 4.8 49 5.0 NW 41 59 22 32 1017.9 - 0.0
30/12:00pm 14.6 4.5 1.8 42 5.6 NNW 44 63 24 34 1018.3 1018.5 0.0
30/11:36am 15.5 6.6 3.0 43 5.7 NNW 39 61 21 33 1018.5 - 0.0
30/11:30am 15.0 6.5 5.0 51 4.7 NNW 39 52 21 28 1018.3 - 0.0
30/11:00am 13.9 3.5 2.2 45 5.1 NNW 46 63 25 34 1018.7 - 0.0
30/10:38am 13.6 4.1 3.7 51 4.5 NNW 43 61 23 33 1018.9 - 0.0
30/10:30am 13.8 3.9 3.0 48 4.8 NNW 44 56 24 30 1018.7 - 0.0
30/10:01am 13.1 3.0 3.5 52 4.3 NNW 46 65 25 35 1018.2 - 0.0
30/10:00am 12.9 2.2 2.5 49 4.6 NNW 48 65 26 35 1018.2 - 0.0
30/09:59am 12.8 2.4 2.1 48 4.6 NNW 46 65 25 35 1018.2 - 0.0
30/09:30am 12.4 2.4 2.3 50 4.4 NNW 44 59 24 32 1018.6 - 0.0
30/09:05am 12.1 2.4 2.6 52 4.1 NNW 43 61 23 33 1018.7 - 0.0
30/09:00am 12.2 2.4 2.1 50 4.4 NNW 43 57 23 31 1018.7 1018.9 0.2
30/08:37am 11.5 2.3 1.5 50 4.2 N 39 57 21 31 1018.9 - 0.2
30/08:30am 11.4 1.9 1.9 52 4.1 N 41 54 22 29 1019.0 - 0.2
30/08:00am 11.3 1.7 1.0 49 4.3 NNW 41 57 22 31 1018.7 - 0.2
30/07:30am 11.0 2.1 1.0 50 4.2 NNW 37 56 20 30 1018.8 - 0.2
30/07:25am 11.1 2.6 0.8 49 4.3 NNW 35 56 19 30 1018.8 - 0.2
30/07:00am 10.4 2.5 1.2 53 3.8 NNW 32 39 17 21 1018.9 - 0.2
30/06:30am 9.4 2.8 1.8 59 3.2 N 26 35 14 19 1018.7 - 0.2
30/06:00am 9.0 2.4 2.3 63 2.8 N 26 32 14 17 1019.1 1019.3 0.2
30/05:30am 9.6 3.4 2.2 60 3.1 N 24 32 13 17 1020.2 - 0.2
30/05:00am 8.9 2.8 2.9 66 2.6 N 24 32 13 17 1020.2 - 0.2
30/04:30am 9.3 3.9 2.4 62 2.9 NNW 20 28 11 15 1020.4 - 0.2
30/04:00am 9.9 5.3 1.8 57 3.4 N 15 20 8 11 1020.5 - 0.0
30/03:30am 9.6 5.5 2.0 59 3.2 N 13 20 7 11 1020.8 - 0.0
30/03:00am 9.0 5.3 2.1 62 2.9 N 11 15 6 8 1021.3 1021.5 0.0
30/02:30am 9.0 5.0 3.0 66 2.6 NNE 13 19 7 10 1021.9 - 0.0
30/02:00am 8.0 5.1 4.4 78 1.6 E 9 11 5 6 1022.4 - 0.0
30/01:30am 8.4 5.3 3.7 72 2.0 ENE 9 11 5 6 1022.6 - 0.0
30/01:00am 8.0 5.0 4.0 76 1.7 NE 9 11 5 6 1022.6 - 0.0
30/12:30am 8.1 4.7 4.1 76 1.7 NE 11 13 6 7 1022.8 - 0.0
30/12:00am 7.9 4.6 4.5 79 1.5 ENE 11 13 6 7 1023.2 1023.4 0.0
 
Date/Time
CST
Temp
°C
App
Temp
°C
Dew
Point
Rel
Hum
%
Delta-T
°C
Wind Press
QNH
hPa
Press
MSL
hPa
Rain
since 9 am
mm
Dir
 
Spd
km/h
Gust
km/h
Spd
kts
Gust
kts
29/11:30pm 7.8 5.2 4.4 79 1.5 E 7 9 4 5 1023.6 - 0.0
29/11:00pm 8.3 5.3 4.1 75 1.8 NE 9 13 5 7 1023.6 - 0.0
29/10:30pm 8.3 4.9 4.1 75 1.8 NNE 11 15 6 8 1023.9 - 0.0
29/10:00pm 8.6 4.1 4.2 74 1.9 NNE 17 22 9 12 1024.1 - 0.0
29/09:30pm 7.5 3.0 4.3 80 1.4 NNE 17 20 9 11 1024.6 - 0.0
29/09:00pm 5.8 1.9 3.3 84 1.0 NNE 13 17 7 9 1025.0 1025.1 0.0
29/08:30pm 6.4 1.8 3.7 83 1.1 NNE 17 19 9 10 1024.9 - 0.0
29/08:00pm 7.0 2.9 4.1 82 1.3 NE 15 19 8 10 1025.0 - 0.0
29/07:30pm 7.5 3.8 4.3 80 1.4 NE 13 17 7 9 1025.2 - 0.0
29/07:00pm 7.4 4.1 4.7 83 1.2 ENE 11 13 6 7 1025.3 - 0.0
29/06:30pm 8.3 3.9 4.9 79 1.5 NE 17 19 9 10 1025.1 - 0.0
29/06:00pm 8.7 5.1 5.1 78 1.6 NE 13 17 7 9 1025.0 1025.1 0.0
29/05:30pm 9.6 6.0 5.2 74 2.0 NNE 13 17 7 9 1025.0 - 0.0
29/05:00pm 10.6 7.4 4.9 68 2.6 NNE 11 15 6 8 1025.4 - 0.0
29/04:30pm 11.9 7.9 5.1 63 3.1 N 15 19 8 10 1025.3 - 0.0
29/04:00pm 12.2 7.1 4.2 58 3.6 N 20 26 11 14 1025.7 - 0.0
29/03:30pm 12.8 7.0 4.5 57 3.8 N 24 33 13 18 1026.1 - 0.0
29/03:00pm 12.8 7.3 4.0 55 4.0 N 22 30 12 16 1026.2 1026.3 0.0
29/02:30pm 12.8 7.4 4.5 57 3.8 N 22 28 12 15 1026.5 - 0.0
29/02:00pm 12.5 7.6 5.2 61 3.4 N 20 26 11 14 1026.9 - 0.0
29/01:30pm 11.9 7.3 5.8 66 2.9 N 19 22 10 12 1027.5 - 0.0
29/01:00pm 11.3 7.1 5.6 68 2.6 N 17 19 9 10 1028.2 - 0.0
29/12:30pm 11.0 6.1 5.1 67 2.7 N 20 26 11 14 1028.9 - 0.0
29/12:00pm 11.1 6.8 5.2 67 2.7 N 17 20 9 11 1029.5 1029.7 0.0
29/11:30am 11.2 6.7 5.9 70 2.5 N 19 24 10 13 1030.0 - 0.0
29/11:00am 10.8 6.6 5.6 70 2.4 N 17 22 9 12 1030.3 - 0.0
29/10:30am 10.3 5.6 5.1 70 2.4 N 19 24 10 13 1031.0 - 0.0
29/10:00am 9.7 4.6 4.1 68 2.5 N 20 26 11 14 1030.7 - 0.0
29/09:30am 8.2 3.1 3.3 71 2.1 N 19 26 10 14 1030.9 - 0.0
29/09:00am 7.4 1.7 3.1 74 1.8 N 22 26 12 14 1031.0 1031.2 0.0
29/08:30am 7.1 2.0 3.2 76 1.6 NNE 19 26 10 14 1030.9 - 0.0
29/08:00am 6.9 2.2 3.2 77 1.6 NNE 17 20 9 11 1031.8 - 0.0
29/07:30am 5.7 1.3 2.7 81 1.2 NNE 15 19 8 10 1031.3 - 0.0
29/07:00am 4.8 -0.1 2.3 84 1.0 NE 17 19 9 10 1030.5 - 0.0
29/06:30am 4.6 -0.3 2.0 83 1.0 NE 17 20 9 11 1030.1 - 0.0
29/06:00am 4.5 -0.7 2.2 85 0.9 NE 19 22 10 12 1030.3 1030.5 0.0
29/05:30am 4.6 0.2 2.5 86 0.8 ENE 15 17 8 9 1030.6 - 0.0
29/05:00am 4.4 -0.1 2.1 85 0.9 NE 15 17 8 9 1030.6 - 0.0
29/04:30am 4.3 -0.2 2.0 85 0.9 NE 15 17 8 9 1031.3 - 0.0
29/04:00am 4.8 -0.4 2.3 84 1.0 NE 19 20 10 11 1030.7 - 0.0
29/03:30am 4.9 -0.3 2.4 84 1.0 NE 19 20 10 11 1030.7 - 0.0
29/03:00am 5.4 0.6 2.8 83 1.1 NE 17 20 9 11 1030.9 1031.1 0.0
29/02:30am 5.3 0.5 2.7 83 1.1 NE 17 20 9 11 1031.0 - 0.0
29/02:00am 5.3 0.9 2.8 84 1.0 NE 15 17 8 9 1031.4 - 0.0
29/01:30am 5.6 0.9 3.1 84 1.0 NE 17 19 9 10 1031.5 - 0.0
29/01:00am 5.6 0.9 3.1 84 1.0 NE 17 20 9 11 1032.0 - 0.0
29/12:30am 5.9 0.8 3.2 83 1.1 NE 19 22 10 12 1032.1 - 0.0
29/12:00am 6.2 1.6 3.5 83 1.1 NE 17 20 9 11 1032.4 1032.6 0.0
 
Date/Time
CST
Temp
°C
App
Temp
°C
Dew
Point
Rel
Hum
%
Delta-T
°C
Wind Press
QNH
hPa
Press
MSL
hPa
Rain
since 9 am
mm
Dir
 
Spd
km/h
Gust
km/h
Spd
kts
Gust
kts
28/11:30pm 6.6 2.1 4.1 84 1.1 NE 17 19 9 10 1032.7 - 0.0
28/11:00pm 6.5 2.8 4.5 87 0.9 NE 13 17 7 9 1032.9 - 0.0
28/10:30pm 6.6 2.2 4.9 89 0.7 NE 17 19 9 10 1033.3 - 0.0
28/10:00pm 6.4 2.7 4.6 88 0.8 NNE 13 15 7 8 1033.7 - 0.0
28/09:30pm 6.6 3.1 5.4 92 0.5 NE 13 15 7 8 1033.9 - 0.0
28/09:00pm 5.6 2.2 4.2 91 0.6 ENE 11 15 6 8 1033.9 1034.1 0.0
28/08:30pm 5.2 2.5 3.5 89 0.7 ENE 7 11 4 6 1034.1 - 0.0
28/08:00pm 6.1 4.5 4.4 89 0.7 E 2 6 1 3 1034.2 - 0.0
28/07:30pm 7.9 6.2 5.7 86 1.0 SE 4 7 2 4 1033.9 - 0.0
28/07:00pm 9.2 7.1 6.8 85 1.1 SE 7 9 4 5 1033.6 - 0.0
28/06:30pm 10.1 8.3 7.2 82 1.4 S 6 7 3 4 1034.1 - 0.0
28/06:00pm 10.5 8.6 7.4 81 1.5 SSE 7 9 4 5 1033.9 1034.1 0.0
28/05:30pm 10.9 8.6 7.6 80 1.6 S 9 11 5 6 1034.3 - 0.0
28/05:00pm 11.4 9.2 7.7 78 1.8 S 9 13 5 7 1034.0 - 0.0
28/04:30pm 12.0 10.0 7.1 72 2.4 WSW 7 11 4 6 1034.1 - 0.0
28/04:00pm 12.0 9.9 6.7 70 2.5 W 7 9 4 5 1034.1 - 0.0
28/03:30pm 12.6 10.4 6.2 65 3.0 NW 7 11 4 6 1034.1 - 0.0
28/03:00pm 13.5 11.2 5.9 60 3.6 WNW 7 15 4 8 1034.1 1034.3 0.0
28/02:30pm 13.8 12.3 6.9 63 3.4 NW 4 11 2 6 1034.1 - 0.0
28/02:00pm 13.4 12.3 6.7 64 3.2 NW 2 7 1 4 1034.5 - 0.0
28/01:30pm 13.4 11.4 6.3 62 3.4 WNW 6 9 3 5 1035.0 - 0.0
28/01:00pm 12.3 11.5 6.4 67 2.8 CALM 0 0 0 0 1035.5 - 0.0
28/12:30pm 12.0 10.4 6.3 68 2.7 WNW 4 7 2 4 1036.4 - 0.0
28/12:00pm 11.9 9.9 6.2 68 2.7 NW 6 9 3 5 1037.0 1037.2 0.0
28/11:30am 12.3 10.2 6.8 69 2.6 NW 7 11 4 6 1037.2 - 0.0
28/11:00am 10.6 8.0 6.2 74 2.1 N 9 13 5 7 1037.6 - 0.0
28/10:30am 11.1 8.7 6.8 75 2.0 NNE 9 15 5 8 1037.6 - 0.0
28/10:00am 10.4 7.8 6.2 75 2.0 NNE 9 13 5 7 1037.7 - 0.0
28/09:30am 9.9 6.9 7.8 87 1.0 NE 13 17 7 9 1037.6 - 0.0
28/09:00am 8.1 4.8 6.6 90 0.7 NE 13 15 7 8 1037.5 1037.7 0.0
28/08:30am 7.0 4.3 5.8 92 0.5 NE 9 13 5 7 1037.6 - 0.0
28/08:00am 6.0 2.4 5.0 93 0.4 NE 13 15 7 8 1037.5 - 0.0
28/07:30am 5.8 2.5 4.6 92 0.5 NE 11 13 6 7 1037.8 - 0.0
28/07:00am 5.3 2.7 4.3 93 0.4 ENE 7 9 4 5 1037.6 - 0.0
28/06:30am 4.5 1.0 3.6 94 0.4 NE 11 11 6 6 1037.2 - 0.0
28/06:00am 3.0 0.0 2.0 93 0.4 NE 7 9 4 5 1037.0 1037.2 0.0
28/05:30am 2.6 0.1 1.4 92 0.5 NNE 4 9 2 5 1036.8 - 0.0
28/05:00am 2.9 -1.3 1.7 92 0.5 NE 13 13 7 7 1036.2 - 0.0
28/04:30am 3.5 -0.2 2.3 92 0.5 NE 11 13 6 7 1035.9 - 0.0
28/04:00am 3.9 -0.1 2.7 92 0.5 NE 13 15 7 8 1035.9 - 0.0
28/03:30am 5.3 2.3 4.1 92 0.5 ENE 9 11 5 6 1036.0 - 0.0
28/03:00am 5.7 2.8 4.7 93 0.4 E 9 11 5 6 1036.2 1036.4 0.0
28/02:30am 5.6 3.1 4.6 93 0.4 E 7 9 4 5 1036.3 - 0.0
28/02:00am 4.6 1.5 3.4 92 0.5 ENE 9 11 5 6 1036.3 - 0.0
28/01:30am 5.3 2.3 4.1 92 0.5 NE 9 11 5 6 1036.1 - 0.0
28/01:00am 5.7 2.4 4.5 92 0.5 NE 11 13 6 7 1036.1 - 0.0
28/12:30am 5.6 2.7 4.4 92 0.5 NE 9 11 5 6 1036.0 - 0.0
28/12:00am 5.9 2.7 4.9 93 0.4 ENE 11 13 6 7 1036.0 1036.2 0.0
 
Date/Time
CST
Temp
°C
App
Temp
°C
Dew
Point
Rel
Hum
%
Delta-T
°C
Wind Press
QNH
hPa
Press
MSL
hPa
Rain
since 9 am
mm
Dir
 
Spd
km/h
Gust
km/h
Spd
kts
Gust
kts
27/11:30pm 6.0 3.2 5.0 93 0.4 S 9 15 5 8 1036.2 - 0.0
27/11:00pm 6.3 3.2 5.4 94 0.4 N 11 11 6 6 1035.9 - 0.0
27/10:30pm 4.8 0.6 3.8 93 0.4 N 15 15 8 8 1035.9 - 0.0
27/10:00pm 3.9 0.2 2.6 91 0.5 N 11 13 6 7 1035.9 - 0.0
27/09:30pm 4.7 0.8 3.5 92 0.5 N 13 15 7 8 1036.0 - 0.0
27/09:00pm 5.1 1.7 3.8 91 0.5 N 11 13 6 7 1035.8 1036.0 0.0
27/08:30pm 5.9 3.0 4.4 90 0.6 NW 9 9 5 5 1035.6 - 0.0
27/08:00pm 7.4 4.8 5.9 90 0.7 NW 9 9 5 5 1035.7 - 0.0
27/07:30pm 7.7 5.5 6.0 89 0.8 W 7 9 4 5 1035.7 - 0.0
27/07:00pm 7.9 5.7 6.0 88 0.9 W 7 9 4 5 1035.6 - 0.0
27/06:30pm 7.7 5.0 5.5 86 1.0 W 9 11 5 6 1035.3 - 0.0
27/06:00pm 7.1 4.2 4.8 85 1.0 W 9 11 5 6 1034.9 1035.1 0.0
27/05:30pm 8.1 5.7 5.2 82 1.3 WSW 7 9 4 5 1034.8 - 0.0
27/05:00pm 8.9 6.2 5.5 79 1.5 WSW 9 11 5 6 1034.6 - 0.0
27/04:30pm 10.8 7.8 5.8 71 2.3 W 11 15 6 8 1034.4 - 0.0
27/04:00pm 11.8 7.4 4.5 61 3.3 WSW 17 20 9 11 1034.3 - 0.0
27/03:30pm 12.1 7.4 5.3 63 3.2 WSW 19 26 10 14 1034.1 - 0.0
27/03:00pm 12.4 7.9 4.4 58 3.6 WSW 17 20 9 11 1033.9 1034.1 0.0
27/02:30pm 12.6 8.3 5.3 61 3.4 W 17 26 9 14 1033.9 - 0.0
27/02:00pm 12.5 8.1 5.0 60 3.5 WSW 17 24 9 13 1033.6 - 0.0

Other Formats:

Comma delimited format used in spreadsheet applications
http://www.bom.gov.au/fwo/IDS60801/IDS60801.95671.axf

JavaScript Object Notation format (JSON) in row-major order
http://www.bom.gov.au/fwo/IDS60801/IDS60801.95671.json